Time;durP1;ratioP1;P1;durP2;ratioP2;P2;SDS_P1;SDS_P2;PMS_P1;PMS_P2;Temp;Humidity;BMP_temperature;BMP_pressure;BME280_temperature;BME280_humidity;BME280_pressure;Samples;Min_cycle;Max_cycle;Signal;HPM_P1;HPM_P2
2021/05/09 00:01:52;;;;;;;2.57;2.00;;;;;;;;;;4984049;28;20221;-74
2021/05/09 00:04:56;;;;;;;2.37;1.63;;;;;;;;;;4995934;28;20198;-75
2021/05/09 00:08:00;;;;;;;2.30;1.70;;;;;;;;;;4987587;28;20546;-74
2021/05/09 00:11:04;;;;;;;3.20;2.10;;;;;;;;;;5002949;28;20218;-75
2021/05/09 00:14:08;;;;;;;3.83;1.90;;;;;;;;;;4992171;28;20220;-75
2021/05/09 00:17:12;;;;;;;5.17;2.50;;;;;;;;;;4999520;28;20189;-75
2021/05/09 00:20:18;;;;;;;3.13;1.80;;;;;;;;;;5003189;28;20197;-75
2021/05/09 00:23:23;;;;;;;4.63;2.40;;;;;;;;;;4986126;28;20202;-75
2021/05/09 00:26:27;;;;;;;5.67;2.03;;;;;;;;;;5015593;28;20178;-75
2021/05/09 00:29:31;;;;;;;3.03;2.00;;;;;;;;;;4995443;28;20183;-74
2021/05/09 00:32:40;;;;;;;2.27;1.97;;;;;;;;;;5008800;28;20229;-75
2021/05/09 00:35:44;;;;;;;3.67;1.87;;;;;;;;;;4995587;28;20186;-75
2021/05/09 00:38:48;;;;;;;2.10;1.90;;;;;;;;;;4995540;28;20183;-75
2021/05/09 00:42:05;;;;;;;3.37;2.30;;;;;;;;;;4995737;28;20221;-74
2021/05/09 00:45:09;;;;;;;4.90;1.93;;;;;;;;;;4989762;28;20186;-74
2021/05/09 00:48:16;;;;;;;3.87;1.97;;;;;;;;;;5002892;28;20181;-75
2021/05/09 00:51:21;;;;;;;3.47;2.13;;;;;;;;;;5002994;28;20221;-73
2021/05/09 00:54:27;;;;;;;5.23;2.40;;;;;;;;;;4982898;28;20206;-74
2021/05/09 00:57:33;;;;;;;2.43;1.77;;;;;;;;;;4998961;28;20622;-74
2021/05/09 01:00:38;;;;;;;2.87;2.33;;;;;;;;;;4999348;28;20194;-74
2021/05/09 01:03:42;;;;;;;2.37;2.07;;;;;;;;;;4994825;28;20178;-74
2021/05/09 01:06:48;;;;;;;4.00;1.90;;;;;;;;;;4997515;28;20533;-74
2021/05/09 01:09:54;;;;;;;2.30;1.90;;;;;;;;;;4984610;28;20629;-74
2021/05/09 01:12:58;;;;;;;3.87;1.93;;;;;;;;;;4971937;28;20178;-74
2021/05/09 01:16:04;;;;;;;3.83;2.13;;;;;;;;;;4982880;28;20182;-74
2021/05/09 01:19:08;;;;;;;3.03;2.10;;;;;;;;;;4982912;28;20187;-74
2021/05/09 01:22:12;;;;;;;2.83;2.03;;;;;;;;;;4996089;28;20296;-75
2021/05/09 01:25:16;;;;;;;4.43;2.10;;;;;;;;;;5014520;28;20182;-75
2021/05/09 01:28:21;;;;;;;2.83;2.23;;;;;;;;;;4990858;28;20181;-74
2021/05/09 01:31:26;;;;;;;2.47;2.00;;;;;;;;;;5001774;28;20209;-75
2021/05/09 01:34:37;;;;;;;3.43;2.33;;;;;;;;;;5001204;28;20213;-74
2021/05/09 01:37:42;;;;;;;2.63;2.07;;;;;;;;;;5002139;28;20193;-74
2021/05/09 01:40:46;;;;;;;4.63;2.17;;;;;;;;;;4991470;28;20229;-74
2021/05/09 01:43:50;;;;;;;2.80;1.97;;;;;;;;;;5001812;28;20182;-74
2021/05/09 01:46:54;;;;;;;2.63;2.30;;;;;;;;;;4985705;28;20186;-75
2021/05/09 01:49:59;;;;;;;4.43;2.10;;;;;;;;;;4982326;28;20629;-74
2021/05/09 01:53:04;;;;;;;2.20;2.00;;;;;;;;;;4982521;28;20187;-75
2021/05/09 01:56:10;;;;;;;3.77;1.90;;;;;;;;;;4982879;28;20217;-74
2021/05/09 01:59:16;;;;;;;3.37;2.30;;;;;;;;;;4982167;28;20617;-74
2021/05/09 02:02:25;;;;;;;2.77;1.80;;;;;;;;;;4981861;28;20214;-74
2021/05/09 02:05:38;;;;;;;3.80;2.10;;;;;;;;;;4993819;28;20194;-74
2021/05/09 02:08:42;;;;;;;2.53;2.07;;;;;;;;;;4994264;28;20201;-74
2021/05/09 02:12:02;;;;;;;2.90;1.93;;;;;;;;;;4993881;28;20214;-74
2021/05/09 02:15:30;;;;;;;3.50;2.03;;;;;;;;;;4981055;28;20212;-74
2021/05/09 02:18:35;;;;;;;2.30;1.70;;;;;;;;;;5012908;28;20209;-74
2021/05/09 02:21:39;;;;;;;5.90;2.17;;;;;;;;;;4990780;28;20222;-74
2021/05/09 02:24:43;;;;;;;2.57;2.03;;;;;;;;;;5001051;28;20189;-74
2021/05/09 02:27:48;;;;;;;4.97;2.37;;;;;;;;;;5001094;28;20233;-74
2021/05/09 02:30:52;;;;;;;3.80;1.97;;;;;;;;;;5013416;28;20548;-75
2021/05/09 02:33:58;;;;;;;3.10;2.27;;;;;;;;;;5004076;28;20224;-74
2021/05/09 02:37:04;;;;;;;2.73;2.10;;;;;;;;;;4985785;28;20201;-74
2021/05/09 02:40:10;;;;;;;2.20;1.77;;;;;;;;;;4997511;28;20633;-74
2021/05/09 02:43:18;;;;;;;2.07;1.83;;;;;;;;;;4997124;28;20549;-74
2021/05/09 02:46:24;;;;;;;3.27;2.00;;;;;;;;;;5004387;28;20189;-75
2021/05/09 02:49:29;;;;;;;2.30;2.10;;;;;;;;;;5016474;28;20189;-74
2021/05/09 02:52:34;;;;;;;2.70;1.73;;;;;;;;;;4985901;28;20558;-75
2021/05/09 02:55:39;;;;;;;2.53;2.00;;;;;;;;;;4985593;28;20225;-75
2021/05/09 02:58:44;;;;;;;2.00;1.80;;;;;;;;;;4997316;28;20197;-74
2021/05/09 03:01:48;;;;;;;3.93;2.10;;;;;;;;;;5013255;28;20225;-75
2021/05/09 03:04:53;;;;;;;3.33;2.00;;;;;;;;;;5016590;28;20181;-74
2021/05/09 03:07:57;;;;;;;1.70;1.60;;;;;;;;;;4993624;28;20181;-75
2021/05/09 03:11:02;;;;;;;2.93;2.10;;;;;;;;;;5004448;28;20221;-74
2021/05/09 03:14:07;;;;;;;4.17;2.30;;;;;;;;;;4986068;28;20676;-74
2021/05/09 03:17:11;;;;;;;5.37;2.27;;;;;;;;;;4985162;28;20191;-74
2021/05/09 03:20:16;;;;;;;2.97;2.30;;;;;;;;;;5004161;28;20190;-74
2021/05/09 03:23:20;;;;;;;3.27;2.53;;;;;;;;;;5016516;28;20182;-75
2021/05/09 03:26:24;;;;;;;3.00;2.57;;;;;;;;;;4999300;28;20229;-74
2021/05/09 03:29:28;;;;;;;3.93;2.57;;;;;;;;;;4984812;28;20178;-74
2021/05/09 03:32:33;;;;;;;3.40;2.10;;;;;;;;;;4996491;28;20225;-74
2021/05/09 03:35:37;;;;;;;3.30;2.10;;;;;;;;;;5015049;28;20209;-75
2021/05/09 03:38:41;;;;;;;3.37;2.20;;;;;;;;;;5016003;28;20181;-74
2021/05/09 03:41:45;;;;;;;2.33;1.80;;;;;;;;;;4997902;28;20218;-75
2021/05/09 03:44:49;;;;;;;3.90;1.80;;;;;;;;;;4995412;28;20178;-74
2021/05/09 03:47:53;;;;;;;2.07;1.80;;;;;;;;;;4996853;28;20202;-74
2021/05/09 03:50:59;;;;;;;3.20;1.53;;;;;;;;;;4996082;28;20218;-74
2021/05/09 03:54:03;;;;;;;3.17;1.90;;;;;;;;;;4996207;28;20210;-75
2021/05/09 03:57:07;;;;;;;3.47;1.80;;;;;;;;;;5024749;23;20228;-76
2021/05/09 04:00:12;;;;;;;2.90;2.03;;;;;;;;;;5035523;28;20204;-76
2021/05/09 04:03:29;;;;;;;1.83;1.70;;;;;;;;;;5003470;28;20529;-76
2021/05/09 04:06:34;;;;;;;2.73;1.50;;;;;;;;;;4996282;28;20190;-76
2021/05/09 04:09:38;;;;;;;2.83;1.80;;;;;;;;;;4996054;28;20186;-76
2021/05/09 04:12:42;;;;;;;2.60;1.60;;;;;;;;;;4995971;28;20226;-76
2021/05/09 04:15:46;;;;;;;4.57;2.23;;;;;;;;;;4984458;28;20222;-76
2021/05/09 04:18:51;;;;;;;2.60;1.80;;;;;;;;;;5013336;28;20197;-76
2021/05/09 04:21:55;;;;;;;2.63;1.83;;;;;;;;;;5002242;28;20220;-76
2021/05/09 04:24:59;;;;;;;1.90;1.60;;;;;;;;;;5014892;28;20624;-76
2021/05/09 04:28:04;;;;;;;1.97;1.50;;;;;;;;;;5012609;28;20194;-76
2021/05/09 04:31:09;;;;;;;2.53;1.63;;;;;;;;;;4995540;28;20214;-76
2021/05/09 04:34:13;;;;;;;4.57;1.30;;;;;;;;;;4995564;28;20541;-75
2021/05/09 04:37:17;;;;;;;3.10;1.50;;;;;;;;;;4995333;28;20174;-75
2021/05/09 04:40:22;;;;;;;3.27;1.47;;;;;;;;;;4995567;28;20641;-75
2021/05/09 04:43:26;;;;;;;1.30;1.17;;;;;;;;;;4983438;28;20182;-75
2021/05/09 04:46:31;;;;;;;2.50;1.50;;;;;;;;;;4992150;28;20546;-76
2021/05/09 04:49:35;;;;;;;3.90;1.43;;;;;;;;;;4992871;28;20680;-75
2021/05/09 04:52:40;;;;;;;5.27;1.33;;;;;;;;;;4992904;28;20217;-76
2021/05/09 04:55:45;;;;;;;2.33;1.50;;;;;;;;;;4979292;28;20214;-76
2021/05/09 04:58:49;;;;;;;2.27;1.70;;;;;;;;;;4998631;28;20660;-76
2021/05/09 05:01:53;;;;;;;1.87;1.43;;;;;;;;;;4995644;28;20217;-76
2021/05/09 05:04:58;;;;;;;3.40;2.00;;;;;;;;;;4991378;28;20178;-76
2021/05/09 05:08:02;;;;;;;2.20;1.77;;;;;;;;;;4991110;28;20649;-76
2021/05/09 05:11:08;;;;;;;2.47;1.43;;;;;;;;;;4991270;28;20704;-77
2021/05/09 05:14:12;;;;;;;2.10;1.50;;;;;;;;;;4991526;28;20201;-77
2021/05/09 05:17:16;;;;;;;2.70;1.30;;;;;;;;;;4987367;28;20193;-76
2021/05/09 05:20:21;;;;;;;1.60;1.43;;;;;;;;;;5010830;28;20182;-76
2021/05/09 05:23:25;;;;;;;2.67;1.30;;;;;;;;;;4996638;28;20197;-76
2021/05/09 05:26:29;;;;;;;2.70;1.30;;;;;;;;;;4999801;28;20190;-76
2021/05/09 05:29:33;;;;;;;1.70;1.20;;;;;;;;;;4979119;28;20182;-76
2021/05/09 05:32:40;;;;;;;2.30;1.40;;;;;;;;;;4990579;28;20213;-76
2021/05/09 05:35:44;;;;;;;3.80;1.33;;;;;;;;;;4990986;28;20206;-76
2021/05/09 05:38:49;;;;;;;1.47;1.13;;;;;;;;;;4979157;28;20202;-76
2021/05/09 05:41:56;;;;;;;3.40;1.77;;;;;;;;;;4990758;28;20565;-76
2021/05/09 05:45:00;;;;;;;1.63;1.40;;;;;;;;;;5003929;28;20193;-76
2021/05/09 05:48:04;;;;;;;1.47;1.37;;;;;;;;;;4991825;28;20198;-75
2021/05/09 05:51:08;;;;;;;2.47;1.70;;;;;;;;;;4970631;28;20222;-75
2021/05/09 05:54:13;;;;;;;2.07;1.20;;;;;;;;;;4999272;28;20193;-75
2021/05/09 05:57:17;;;;;;;1.20;1.10;;;;;;;;;;5013477;28;20197;-75
2021/05/09 06:00:21;;;;;;;2.10;1.10;;;;;;;;;;5012910;28;20181;-76
2021/05/09 06:03:26;;;;;;;1.20;1.10;;;;;;;;;;4994063;28;20190;-75
2021/05/09 06:06:30;;;;;;;1.07;0.97;;;;;;;;;;5012917;28;20208;-75
2021/05/09 06:09:35;;;;;;;1.63;1.00;;;;;;;;;;5012385;28;20182;-75
2021/05/09 06:12:39;;;;;;;2.60;1.50;;;;;;;;;;5000945;28;20217;-75
2021/05/09 06:15:43;;;;;;;2.57;1.33;;;;;;;;;;4989510;28;20309;-75
2021/05/09 06:18:47;;;;;;;2.57;1.20;;;;;;;;;;4981852;28;20182;-75
2021/05/09 06:21:52;;;;;;;1.60;1.13;;;;;;;;;;4993684;28;20217;-76
2021/05/09 06:24:56;;;;;;;2.80;1.07;;;;;;;;;;4994022;28;20174;-76
2021/05/09 06:28:00;;;;;;;0.90;0.80;;;;;;;;;;4995320;28;20198;-75
2021/05/09 06:31:05;;;;;;;1.80;0.97;;;;;;;;;;5001538;28;20217;-76
2021/05/09 06:34:09;;;;;;;1.80;0.60;;;;;;;;;;4993439;28;20669;-75
2021/05/09 06:37:13;;;;;;;1.57;0.90;;;;;;;;;;5009891;28;20640;-75
2021/05/09 06:40:19;;;;;;;1.47;0.90;;;;;;;;;;5001091;28;20536;-76
2021/05/09 06:43:23;;;;;;;1.27;1.00;;;;;;;;;;4987881;28;20202;-75
2021/05/09 06:46:27;;;;;;;2.07;0.83;;;;;;;;;;4998702;28;20193;-75
2021/05/09 06:49:32;;;;;;;1.37;1.03;;;;;;;;;;5013151;28;20198;-75
2021/05/09 06:52:36;;;;;;;1.17;1.03;;;;;;;;;;5012702;28;20213;-75
2021/05/09 06:55:43;;;;;;;2.23;1.00;;;;;;;;;;5012947;28;20557;-75
2021/05/09 06:58:47;;;;;;;2.00;1.20;;;;;;;;;;4993582;28;20530;-74
2021/05/09 07:01:51;;;;;;;2.03;1.00;;;;;;;;;;4993217;28;20230;-75
2021/05/09 07:04:55;;;;;;;1.60;0.90;;;;;;;;;;4993110;28;20201;-75
2021/05/09 07:07:59;;;;;;;4.73;0.93;;;;;;;;;;4993510;28;20565;-75
2021/05/09 07:11:04;;;;;;;0.70;0.70;;;;;;;;;;4994132;28;20218;-75
2021/05/09 07:14:08;;;;;;;3.80;0.93;;;;;;;;;;4993433;28;20193;-75
2021/05/09 07:17:13;;;;;;;2.10;1.00;;;;;;;;;;4997594;28;20656;-75
2021/05/09 07:20:18;;;;;;;1.60;0.90;;;;;;;;;;5014184;28;20181;-75
2021/05/09 07:23:24;;;;;;;1.20;0.70;;;;;;;;;;5009991;28;20186;-75
2021/05/09 07:26:28;;;;;;;1.07;0.70;;;;;;;;;;5003496;28;20186;-75
2021/05/09 07:29:32;;;;;;;2.80;1.10;;;;;;;;;;4997030;28;20174;-75
2021/05/09 07:32:37;;;;;;;1.00;0.90;;;;;;;;;;5003432;28;20704;-75
2021/05/09 07:35:44;;;;;;;1.37;0.70;;;;;;;;;;5009527;28;20210;-77
2021/05/09 07:38:48;;;;;;;1.63;0.87;;;;;;;;;;5008202;28;20182;-76
2021/05/09 07:41:53;;;;;;;0.73;0.70;;;;;;;;;;4999172;28;20225;-77
2021/05/09 07:44:59;;;;;;;3.20;1.07;;;;;;;;;;5013220;28;20178;-77
2021/05/09 07:48:03;;;;;;;1.60;0.80;;;;;;;;;;4987855;28;20197;-77
2021/05/09 07:51:08;;;;;;;1.80;1.00;;;;;;;;;;5000651;28;20213;-77
2021/05/09 07:54:12;;;;;;;1.20;0.90;;;;;;;;;;5011030;28;20564;-77
2021/05/09 07:57:16;;;;;;;1.27;0.80;;;;;;;;;;4992959;28;20900;-77
2021/05/09 08:00:21;;;;;;;1.20;0.90;;;;;;;;;;4999774;28;20193;-77
2021/05/09 08:03:25;;;;;;;1.90;1.00;;;;;;;;;;5015232;28;20170;-76
2021/05/09 08:06:30;;;;;;;1.07;0.97;;;;;;;;;;4972990;28;20202;-76
2021/05/09 08:09:34;;;;;;;1.00;0.90;;;;;;;;;;4996083;28;20194;-76
2021/05/09 08:12:38;;;;;;;2.40;1.00;;;;;;;;;;4991529;28;20604;-76
2021/05/09 08:15:42;;;;;;;1.63;0.87;;;;;;;;;;5003652;28;20537;-75
2021/05/09 08:18:46;;;;;;;3.23;0.90;;;;;;;;;;5013672;28;20663;-76
2021/05/09 08:21:51;;;;;;;3.20;1.10;;;;;;;;;;5014897;28;20214;-76
2021/05/09 08:24:55;;;;;;;1.93;0.80;;;;;;;;;;4995902;28;20190;-73
2021/05/09 08:27:59;;;;;;;1.13;0.90;;;;;;;;;;4997827;28;20182;-74
2021/05/09 08:31:04;;;;;;;2.53;1.00;;;;;;;;;;4992025;28;20229;-74
2021/05/09 08:34:08;;;;;;;1.10;0.80;;;;;;;;;;5000866;28;20198;-74
2021/05/09 08:37:13;;;;;;;2.70;1.10;;;;;;;;;;5011761;28;20214;-76
2021/05/09 08:40:17;;;;;;;2.30;0.77;;;;;;;;;;4998868;28;20194;-75
2021/05/09 08:43:21;;;;;;;1.13;0.77;;;;;;;;;;4991759;28;20184;-76
2021/05/09 08:46:26;;;;;;;3.43;0.97;;;;;;;;;;4991060;28;20182;-76
2021/05/09 08:49:35;;;;;;;0.85;0.77;;;;;;;;;;4994765;28;20194;-76
2021/05/09 08:52:41;;;;;;;1.85;0.75;;;;;;;;;;4999269;28;20218;-76
2021/05/09 08:55:46;;;;;;;2.88;0.85;;;;;;;;;;5003443;28;20236;-76
2021/05/09 08:58:50;;;;;;;3.80;1.00;;;;;;;;;;4991732;28;20176;-75
2021/05/09 09:01:58;;;;;;;3.83;0.80;;;;;;;;;;4991897;28;20589;-76
2021/05/09 09:05:03;;;;;;;0.80;0.80;;;;;;;;;;4992633;28;20200;-75
2021/05/09 09:08:09;;;;;;;1.10;0.80;;;;;;;;;;4994682;28;20177;-76
2021/05/09 09:11:13;;;;;;;1.83;1.00;;;;;;;;;;5004385;28;20229;-75
2021/05/09 09:14:17;;;;;;;1.55;0.95;;;;;;;;;;5004760;28;20180;-75
2021/05/09 09:17:22;;;;;;;3.13;0.90;;;;;;;;;;4993963;28;20208;-75
2021/05/09 09:20:30;;;;;;;1.05;0.95;;;;;;;;;;5005962;28;20190;-75
2021/05/09 09:23:45;;;;;;;1.92;1.00;;;;;;;;;;5010052;28;20199;-77
2021/05/09 09:26:52;;;;;;;3.13;0.80;;;;;;;;;;4986232;28;20191;-75
2021/05/09 09:30:00;;;;;;;2.80;0.93;;;;;;;;;;4994389;28;20199;-75
2021/05/09 09:33:10;;;;;;;1.10;0.80;;;;;;;;;;4994376;28;20185;-75
2021/05/09 09:36:19;;;;;;;1.38;0.80;;;;;;;;;;4982247;28;20212;-75
2021/05/09 09:39:43;;;;;;;1.02;0.90;;;;;;;;;;4993748;28;20188;-75
2021/05/09 09:42:48;;;;;;;1.13;0.75;;;;;;;;;;4993532;28;20219;-75
2021/05/09 09:45:52;;;;;;;2.97;0.95;;;;;;;;;;4971300;28;20196;-76
2021/05/09 09:48:57;;;;;;;1.85;1.00;;;;;;;;;;4994341;28;20186;-75
2021/05/09 09:52:09;;;;;;;1.40;0.90;;;;;;;;;;4994235;28;20689;-75
2021/05/09 09:55:13;;;;;;;1.40;0.85;;;;;;;;;;4994020;28;20177;-75
2021/05/09 09:58:17;;;;;;;0.95;0.80;;;;;;;;;;5021956;23;20599;-82
2021/05/09 10:01:28;;;;;;;2.10;0.88;;;;;;;;;;4993716;28;20185;-82
2021/05/09 10:04:33;;;;;;;1.27;1.00;;;;;;;;;;4996940;28;20670;-82
2021/05/09 10:07:37;;;;;;;1.42;0.90;;;;;;;;;;4991099;28;20616;-82
2021/05/09 10:10:42;;;;;;;3.15;0.90;;;;;;;;;;4991224;28;20187;-82
2021/05/09 10:13:47;;;;;;;3.10;1.05;;;;;;;;;;5002154;28;20191;-82
2021/05/09 10:16:53;;;;;;;2.28;0.80;;;;;;;;;;4979537;28;20668;-82
2021/05/09 10:19:57;;;;;;;0.93;0.82;;;;;;;;;;4979853;28;20183;-82
2021/05/09 10:23:04;;;;;;;2.13;1.00;;;;;;;;;;4990623;28;20210;-82
2021/05/09 10:26:08;;;;;;;1.30;0.75;;;;;;;;;;4979293;28;20186;-83
2021/05/09 10:29:41;;;;;;;1.48;0.85;;;;;;;;;;4990426;28;20210;-82
2021/05/09 10:32:48;;;;;;;1.33;1.13;;;;;;;;;;4979125;28;20190;-82
2021/05/09 10:35:52;;;;;;;0.82;0.80;;;;;;;;;;4990624;28;20180;-82
2021/05/09 10:39:14;;;;;;;3.40;1.00;;;;;;;;;;4979327;28;20232;-82
2021/05/09 10:42:19;;;;;;;2.55;0.90;;;;;;;;;;4990803;28;20616;-82
2021/05/09 10:45:33;;;;;;;1.38;0.90;;;;;;;;;;4979749;28;20188;-82
2021/05/09 10:48:37;;;;;;;5.82;1.08;;;;;;;;;;4979260;28;20214;-82
2021/05/09 10:51:41;;;;;;;1.35;1.00;;;;;;;;;;4990435;28;20196;-82
2021/05/09 10:54:46;;;;;;;0.75;0.75;;;;;;;;;;4992922;28;20552;-82
2021/05/09 10:57:53;;;;;;;1.65;0.90;;;;;;;;;;4982600;28;20236;-82
2021/05/09 11:00:57;;;;;;;2.35;0.73;;;;;;;;;;4994188;28;20188;-82
2021/05/09 11:04:02;;;;;;;1.42;0.80;;;;;;;;;;4993996;28;20184;-83
2021/05/09 11:07:07;;;;;;;1.08;0.98;;;;;;;;;;5005406;28;20176;-82
2021/05/09 11:10:40;;;;;;;1.92;1.00;;;;;;;;;;4995462;28;20179;-83
2021/05/09 11:13:56;;;;;;;1.23;0.75;;;;;;;;;;4996835;28;20181;-83
2021/05/09 11:17:07;;;;;;;1.23;0.80;;;;;;;;;;4985248;28;20208;-83
2021/05/09 11:20:11;;;;;;;1.10;0.75;;;;;;;;;;4984415;28;20211;-84
2021/05/09 11:23:15;;;;;;;1.60;0.60;;;;;;;;;;4996515;28;20181;-83
2021/05/09 11:26:25;;;;;;;4.13;0.93;;;;;;;;;;4996184;28;20173;-83
2021/05/09 11:29:30;;;;;;;1.45;1.00;;;;;;;;;;5006964;28;20220;-83
2021/05/09 11:32:35;;;;;;;0.90;0.77;;;;;;;;;;4982813;28;20185;-84
2021/05/09 11:35:39;;;;;;;1.42;1.00;;;;;;;;;;5006698;28;20184;-83
2021/05/09 11:38:44;;;;;;;2.22;0.90;;;;;;;;;;4990695;28;20290;-83
2021/05/09 11:41:57;;;;;;;2.17;0.82;;;;;;;;;;4972131;28;20190;-84
2021/05/09 11:45:03;;;;;;;2.60;1.10;;;;;;;;;;4972862;28;20192;-83
2021/05/09 11:48:08;;;;;;;3.25;1.02;;;;;;;;;;4993397;28;20213;-83
2021/05/09 11:51:12;;;;;;;2.30;0.93;;;;;;;;;;4986342;28;20197;-82
2021/05/09 11:54:17;;;;;;;3.15;1.00;;;;;;;;;;5004544;28;20201;-84
2021/05/09 11:57:23;;;;;;;1.20;0.90;;;;;;;;;;4984355;28;20205;-83
2021/05/09 12:00:28;;;;;;;2.45;1.20;;;;;;;;;;4983358;28;20205;-83
2021/05/09 12:03:32;;;;;;;6.47;1.08;;;;;;;;;;4986821;28;20196;-84
2021/05/09 12:06:36;;;;;;;4.32;1.10;;;;;;;;;;5005635;28;20196;-83
2021/05/09 12:09:40;;;;;;;3.08;1.05;;;;;;;;;;4994483;28;20698;-83
2021/05/09 12:12:46;;;;;;;3.03;0.90;;;;;;;;;;5003241;28;20552;-82
2021/05/09 12:15:50;;;;;;;1.13;0.88;;;;;;;;;;4985121;28;20534;-83
2021/05/09 12:19:05;;;;;;;2.38;1.00;;;;;;;;;;4985121;28;20213;-83
2021/05/09 12:22:11;;;;;;;1.15;0.80;;;;;;;;;;4973356;28;20187;-83
2021/05/09 12:25:26;;;;;;;1.10;0.82;;;;;;;;;;4984680;28;20185;-83
2021/05/09 12:28:32;;;;;;;3.55;0.90;;;;;;;;;;4977108;28;20208;-83
2021/05/09 12:31:36;;;;;;;1.55;0.70;;;;;;;;;;4972480;28;20655;-84
2021/05/09 12:34:41;;;;;;;1.83;0.90;;;;;;;;;;4973499;28;20185;-83
2021/05/09 12:37:48;;;;;;;2.67;1.10;;;;;;;;;;4973286;28;20221;-83
2021/05/09 12:41:07;;;;;;;2.25;1.13;;;;;;;;;;4999350;28;20205;-83
2021/05/09 12:44:21;;;;;;;0.90;0.70;;;;;;;;;;5003895;28;20201;-82
2021/05/09 12:47:26;;;;;;;2.78;1.02;;;;;;;;;;5003685;28;20283;-83
2021/05/09 12:50:52;;;;;;;3.40;1.02;;;;;;;;;;4988911;28;20639;-83
2021/05/09 12:53:56;;;;;;;1.30;0.90;;;;;;;;;;4987783;28;20196;-83
2021/05/09 12:57:16;;;;;;;1.30;0.90;;;;;;;;;;4980831;28;20209;-83
2021/05/09 13:00:31;;;;;;;2.42;0.90;;;;;;;;;;4982707;28;20209;-85
2021/05/09 13:03:38;;;;;;;2.05;1.00;;;;;;;;;;4984472;28;20200;-83
2021/05/09 13:06:42;;;;;;;3.10;0.93;;;;;;;;;;4992117;28;20179;-82
2021/05/09 13:09:49;;;;;;;1.10;0.80;;;;;;;;;;4987952;28;20687;-82
2021/05/09 13:13:00;;;;;;;4.03;0.93;;;;;;;;;;4961970;28;20540;-82
2021/05/09 13:16:04;;;;;;;0.80;0.70;;;;;;;;;;4961381;28;20178;-82
2021/05/09 13:19:08;;;;;;;1.30;0.90;;;;;;;;;;4960784;28;20542;-82
2021/05/09 13:22:13;;;;;;;1.63;0.70;;;;;;;;;;4972378;28;20194;-82
2021/05/09 13:25:18;;;;;;;1.27;0.88;;;;;;;;;;4961054;28;20189;-82
2021/05/09 13:28:22;;;;;;;2.40;0.90;;;;;;;;;;4983273;28;20225;-82
2021/05/09 13:31:27;;;;;;;1.75;1.23;;;;;;;;;;4983128;28;20184;-82
2021/05/09 13:34:31;;;;;;;55.78;35.67;;;;;;;;;;4961224;28;20521;-81
2021/05/09 13:37:36;;;;;;;4.15;1.40;;;;;;;;;;4972147;28;20209;-81
2021/05/09 13:40:40;;;;;;;5.35;1.08;;;;;;;;;;4961080;28;20193;-82
2021/05/09 13:43:44;;;;;;;2.25;0.80;;;;;;;;;;4972223;28;20185;-81
2021/05/09 13:46:49;;;;;;;1.40;0.88;;;;;;;;;;4982783;28;20640;-81
2021/05/09 13:49:54;;;;;;;2.28;1.60;;;;;;;;;;4971665;28;20183;-81
2021/05/09 13:52:58;;;;;;;0.80;0.65;;;;;;;;;;4971671;28;20190;-81
2021/05/09 13:56:05;;;;;;;3.25;1.40;;;;;;;;;;4982464;28;20188;-81
2021/05/09 13:59:10;;;;;;;31.25;15.88;;;;;;;;;;4960061;28;20700;-81
2021/05/09 14:02:14;;;;;;;6.35;2.97;;;;;;;;;;4960442;28;20195;-81
2021/05/09 14:05:19;;;;;;;3.47;1.50;;;;;;;;;;4971596;28;20177;-82
2021/05/09 14:08:23;;;;;;;2.78;1.45;;;;;;;;;;4960349;28;20553;-82
2021/05/09 14:11:27;;;;;;;4.38;1.90;;;;;;;;;;4982605;28;20193;-82
2021/05/09 14:14:37;;;;;;;2.75;1.30;;;;;;;;;;4971145;28;20205;-81
2021/05/09 14:17:41;;;;;;;4.00;1.50;;;;;;;;;;4971160;28;20204;-81
2021/05/09 14:20:46;;;;;;;1.40;0.80;;;;;;;;;;4982800;28;20188;-81
2021/05/09 14:23:50;;;;;;;1.30;0.80;;;;;;;;;;4971953;28;20188;-82
2021/05/09 14:26:55;;;;;;;4.65;3.35;;;;;;;;;;4971792;28;20185;-82
2021/05/09 14:30:00;;;;;;;11.25;6.50;;;;;;;;;;4963568;28;20620;-81
2021/05/09 14:33:06;;;;;;;3.90;1.70;;;;;;;;;;4975848;28;20180;-81
2021/05/09 14:36:12;;;;;;;1.83;1.00;;;;;;;;;;4976400;28;20178;-82
2021/05/09 14:39:16;;;;;;;1.70;1.20;;;;;;;;;;4964662;28;20228;-82
2021/05/09 14:42:20;;;;;;;1.77;0.73;;;;;;;;;;4976086;28;20187;-83
2021/05/09 14:45:25;;;;;;;0.93;0.60;;;;;;;;;;4977044;28;20184;-83
2021/05/09 14:48:29;;;;;;;2.67;0.80;;;;;;;;;;4975961;28;20221;-82
2021/05/09 14:51:33;;;;;;;3.17;0.98;;;;;;;;;;4975810;28;20182;-82
2021/05/09 14:54:37;;;;;;;4.63;0.77;;;;;;;;;;4986973;28;20187;-82
2021/05/09 14:57:42;;;;;;;1.65;0.80;;;;;;;;;;4975623;28;20210;-82
2021/05/09 15:00:49;;;;;;;1.42;0.77;;;;;;;;;;4964664;28;20192;-82
2021/05/09 15:03:54;;;;;;;3.83;0.88;;;;;;;;;;4975776;28;20177;-82
2021/05/09 15:06:59;;;;;;;1.75;0.70;;;;;;;;;;4975498;28;20215;-82
2021/05/09 15:10:04;;;;;;;1.25;0.80;;;;;;;;;;4986846;28;20533;-82
2021/05/09 15:13:08;;;;;;;3.35;0.68;;;;;;;;;;4964995;28;20189;-83
2021/05/09 15:16:15;;;;;;;0.80;0.73;;;;;;;;;;4986793;28;20180;-82
2021/05/09 15:19:20;;;;;;;1.33;0.70;;;;;;;;;;4963805;28;20228;-82
2021/05/09 15:22:25;;;;;;;1.08;0.70;;;;;;;;;;4976279;28;20186;-82
2021/05/09 15:25:29;;;;;;;1.60;0.73;;;;;;;;;;4976529;28;20180;-83
2021/05/09 15:28:33;;;;;;;3.63;0.82;;;;;;;;;;4975725;28;20221;-82
2021/05/09 15:31:38;;;;;;;2.25;0.90;;;;;;;;;;4994702;28;20206;-83
2021/05/09 15:34:42;;;;;;;1.73;0.80;;;;;;;;;;4980221;28;20187;-84
2021/05/09 15:37:47;;;;;;;1.70;1.00;;;;;;;;;;4967355;28;20214;-82
2021/05/09 15:40:51;;;;;;;1.00;0.90;;;;;;;;;;4990372;28;20541;-82
2021/05/09 15:43:55;;;;;;;3.70;1.05;;;;;;;;;;4971778;28;20191;-82
2021/05/09 15:47:01;;;;;;;3.67;0.80;;;;;;;;;;5005877;28;20179;-82
2021/05/09 15:50:05;;;;;;;1.60;0.90;;;;;;;;;;4979463;28;20184;-82
2021/05/09 15:53:09;;;;;;;9.33;1.50;;;;;;;;;;4985430;28;20188;-82
2021/05/09 15:56:14;;;;;;;4.60;1.00;;;;;;;;;;4963677;28;20179;-82
2021/05/09 15:59:18;;;;;;;3.70;0.97;;;;;;;;;;4975784;28;20233;-85
2021/05/09 16:02:22;;;;;;;2.40;1.03;;;;;;;;;;4963217;28;20190;-84
2021/05/09 16:05:27;;;;;;;1.33;1.10;;;;;;;;;;4990900;28;20190;-85
2021/05/09 16:08:30;;;;;;;1.47;1.00;;;;;;;;;;5001649;28;20225;-85
2021/05/09 16:11:36;;;;;;;7.03;1.10;;;;;;;;;;4992372;28;20205;-85
2021/05/09 16:14:40;;;;;;;2.77;0.83;;;;;;;;;;4988023;28;20553;-85
2021/05/09 16:17:44;;;;;;;5.07;0.97;;;;;;;;;;4978383;28;20223;-85
2021/05/09 16:20:49;;;;;;;4.20;0.90;;;;;;;;;;4992681;28;20205;-85
2021/05/09 16:23:53;;;;;;;1.43;0.83;;;;;;;;;;4992482;28;20185;-85
2021/05/09 16:26:57;;;;;;;0.70;0.70;;;;;;;;;;4992740;28;20180;-85
2021/05/09 16:30:02;;;;;;;2.30;1.00;;;;;;;;;;4981499;28;20186;-85
2021/05/09 16:33:08;;;;;;;2.20;0.80;;;;;;;;;;4976907;28;20565;-86
2021/05/09 16:36:12;;;;;;;3.10;1.10;;;;;;;;;;4973852;28;20188;-86
2021/05/09 16:39:16;;;;;;;2.77;0.90;;;;;;;;;;4981424;28;20688;-86
2021/05/09 16:42:20;;;;;;;20.20;1.97;;;;;;;;;;4980405;28;20183;-85
2021/05/09 16:45:25;;;;;;;4.20;0.87;;;;;;;;;;4972880;28;20187;-86
2021/05/09 16:48:29;;;;;;;1.20;0.70;;;;;;;;;;4984859;28;20218;-85
2021/05/09 16:51:35;;;;;;;1.40;0.70;;;;;;;;;;4991099;28;20196;-86
2021/05/09 16:54:38;;;;;;;2.03;0.80;;;;;;;;;;4973158;28;20202;-86
2021/05/09 16:57:43;;;;;;;2.77;0.80;;;;;;;;;;4972012;28;20194;-86
2021/05/09 17:00:47;;;;;;;1.63;0.73;;;;;;;;;;4980526;28;20181;-86
2021/05/09 17:03:52;;;;;;;3.53;0.97;;;;;;;;;;4979377;28;20203;-86
2021/05/09 17:06:56;;;;;;;2.43;0.80;;;;;;;;;;4985394;28;20186;-85
2021/05/09 17:10:00;;;;;;;0.90;0.80;;;;;;;;;;4972273;28;20198;-86
2021/05/09 17:13:07;;;;;;;1.80;0.70;;;;;;;;;;4966647;28;20197;-86
2021/05/09 17:16:11;;;;;;;1.40;0.90;;;;;;;;;;4978667;28;20185;-85
2021/05/09 17:19:16;;;;;;;2.20;0.80;;;;;;;;;;4971919;28;20676;-86
2021/05/09 17:22:20;;;;;;;1.13;0.50;;;;;;;;;;4994785;28;20202;-85
2021/05/09 17:25:24;;;;;;;1.17;0.90;;;;;;;;;;4978643;28;20194;-85
2021/05/09 17:28:29;;;;;;;1.43;0.90;;;;;;;;;;4991224;28;20674;-86
2021/05/09 17:31:33;;;;;;;4.00;0.77;;;;;;;;;;4976094;28;20186;-86
2021/05/09 17:34:37;;;;;;;1.33;0.70;;;;;;;;;;4990721;28;20186;-85
2021/05/09 17:37:43;;;;;;;0.93;0.83;;;;;;;;;;4962438;28;20195;-86
2021/05/09 17:40:47;;;;;;;4.47;0.80;;;;;;;;;;5007636;28;20174;-84
2021/05/09 17:43:51;;;;;;;5.50;0.80;;;;;;;;;;4968478;28;20194;-85
2021/05/09 17:46:57;;;;;;;1.00;0.60;;;;;;;;;;4993721;28;20186;-84
2021/05/09 17:50:04;;;;;;;2.60;0.80;;;;;;;;;;4978746;28;20177;-83
2021/05/09 17:53:08;;;;;;;3.30;0.80;;;;;;;;;;4989570;28;20525;-85
2021/05/09 17:56:15;;;;;;;1.73;0.80;;;;;;;;;;4973122;28;20646;-85
2021/05/09 17:59:20;;;;;;;1.93;0.77;;;;;;;;;;4982312;28;20229;-85
2021/05/09 18:02:25;;;;;;;9.60;1.13;;;;;;;;;;4977118;28;20198;-86
2021/05/09 18:05:28;;;;;;;1.40;0.70;;;;;;;;;;4976912;28;20190;-85
2021/05/09 18:08:34;;;;;;;1.60;0.93;;;;;;;;;;4970053;28;20213;-85
2021/05/09 18:11:40;;;;;;;1.17;0.80;;;;;;;;;;4971248;28;20554;-85
2021/05/09 18:14:46;;;;;;;1.00;0.70;;;;;;;;;;4984840;28;20229;-85
2021/05/09 18:24:14;;;;;;;2.40;0.70;;;;;;;;;;4998687;28;20195;-84
2021/05/09 18:27:18;;;;;;;0.57;0.57;;;;;;;;;;4983122;28;20182;-83
2021/05/09 18:30:23;;;;;;;3.60;0.67;;;;;;;;;;4957191;28;20519;-83
2021/05/09 18:33:27;;;;;;;2.67;1.10;;;;;;;;;;4979843;28;20186;-83
2021/05/09 18:36:32;;;;;;;4.10;0.83;;;;;;;;;;4979974;28;20198;-84
2021/05/09 18:39:36;;;;;;;2.40;1.13;;;;;;;;;;4958040;28;20226;-83